Time;durP1;ratioP1;P1;durP2;ratioP2;P2;SDS_P1;SDS_P2;PMS_P1;PMS_P2;Temp;Humidity;BMP_temperature;BMP_pressure;BME280_temperature;BME280_humidity;BME280_pressure;Samples;Min_cycle;Max_cycle;Signal;HPM_P1;HPM_P2
2021/09/18 00:01:59;;;;;;;28.55;16.02;;;;;;;18.05;56.78;101565.72;4961036;28;119738;-69
2021/09/18 00:04:26;;;;;;;28.55;15.70;;;;;;;18.03;56.60;101573.00;4961327;28;119242;-69
2021/09/18 00:06:53;;;;;;;30.13;16.55;;;;;;;18.00;56.88;101567.84;4966189;28;123520;-69
2021/09/18 00:09:20;;;;;;;29.00;16.60;;;;;;;17.98;57.07;101569.75;4966365;28;123766;-69
2021/09/18 00:11:47;;;;;;;22.80;13.35;;;;;;;17.93;56.64;101571.00;4967135;28;118681;-69
2021/09/18 00:14:22;;;;;;;21.95;12.20;;;;;;;17.84;56.60;101561.75;4967965;28;119401;-69
2021/09/18 00:16:49;;;;;;;22.88;12.52;;;;;;;17.77;56.70;101574.66;4967549;28;123834;-69
2021/09/18 00:19:17;;;;;;;26.42;15.07;;;;;;;17.71;56.59;101572.38;4961453;28;123578;-69
2021/09/18 00:21:44;;;;;;;29.05;15.52;;;;;;;17.68;56.83;101573.41;4966853;28;119267;-69
2021/09/18 00:24:11;;;;;;;27.35;16.15;;;;;;;17.65;57.12;101573.63;4966964;28;118878;-69
2021/09/18 00:26:38;;;;;;;29.42;16.90;;;;;;;17.63;56.94;101570.19;4965457;28;124292;-69
2021/09/18 00:29:06;;;;;;;30.27;17.33;;;;;;;17.59;57.09;101573.97;4967953;28;124758;-69
2021/09/18 00:31:33;;;;;;;33.85;17.23;;;;;;;17.57;57.19;101570.53;4964421;28;121050;-69
2021/09/18 00:34:00;;;;;;;32.88;18.38;;;;;;;17.55;57.26;101572.47;4967317;28;119822;-70
2021/09/18 00:36:27;;;;;;;34.78;18.13;;;;;;;17.50;57.19;101570.09;4965055;28;124455;-70
2021/09/18 00:38:55;;;;;;;36.63;18.33;;;;;;;17.49;57.34;101567.50;4961470;28;123758;-69
2021/09/18 00:41:22;;;;;;;39.03;20.05;;;;;;;17.46;57.41;101573.03;4970359;28;120104;-70
2021/09/18 00:43:51;;;;;;;35.05;19.13;;;;;;;17.45;57.45;101571.31;4965950;28;120003;-70
2021/09/18 00:46:19;;;;;;;34.83;19.05;;;;;;;17.43;57.39;101567.88;4967912;28;124466;-70
2021/09/18 00:48:46;;;;;;;34.67;18.88;;;;;;;17.42;57.67;101571.50;4957501;28;123923;-69
2021/09/18 00:51:14;;;;;;;33.47;18.95;;;;;;;17.40;57.59;101574.28;4960528;28;119289;-69
2021/09/18 00:53:42;;;;;;;35.42;20.33;;;;;;;17.38;57.72;101570.84;4963749;28;118766;-70
2021/09/18 00:56:10;;;;;;;35.75;19.70;;;;;;;17.36;57.85;101567.41;4969294;28;123945;-70
2021/09/18 00:58:37;;;;;;;38.15;18.98;;;;;;;17.34;57.77;101573.81;4958585;28;124734;-70
2021/09/18 01:01:04;;;;;;;34.28;18.25;;;;;;;17.32;57.79;101574.75;4958937;28;119060;-70
2021/09/18 01:03:32;;;;;;;35.90;19.15;;;;;;;17.31;57.90;101581.09;4958667;28;119044;-70
2021/09/18 01:05:59;;;;;;;34.03;19.73;;;;;;;17.29;57.98;101583.00;4966961;28;124124;-70
2021/09/18 01:08:29;;;;;;;35.55;19.25;;;;;;;17.29;58.06;101582.13;4966700;28;123189;-70
2021/09/18 01:10:56;;;;;;;33.35;19.17;;;;;;;17.27;57.99;101574.19;4967674;28;119276;-70
2021/09/18 01:13:24;;;;;;;33.97;19.08;;;;;;;17.27;58.28;101573.31;4961445;28;119686;-70
2021/09/18 01:15:51;;;;;;;32.60;18.90;;;;;;;17.27;58.21;101576.88;4968538;28;124166;-70
2021/09/18 01:18:18;;;;;;;38.40;19.88;;;;;;;17.26;58.21;101577.81;4958687;28;124765;-70
2021/09/18 01:20:47;;;;;;;40.92;21.25;;;;;;;17.26;58.31;101572.47;4960531;28;123397;-70
2021/09/18 01:23:20;;;;;;;45.97;22.63;;;;;;;17.26;58.41;101572.47;4961835;28;120039;-70
2021/09/18 01:25:48;;;;;;;45.35;23.35;;;;;;;17.28;58.54;101573.22;4966957;28;123837;-70
2021/09/18 01:28:16;;;;;;;44.20;22.13;;;;;;;17.28;58.58;101570.56;4960580;28;124208;-70
2021/09/18 01:30:44;;;;;;;42.78;22.35;;;;;;;17.29;58.75;101576.75;4962887;28;119186;-70
2021/09/18 01:33:12;;;;;;;47.20;21.02;;;;;;;17.29;58.91;101576.75;4967382;28;119359;-70
2021/09/18 01:35:39;;;;;;;45.80;21.42;;;;;;;17.28;58.83;101570.56;4964438;28;124981;-70
2021/09/18 01:38:07;;;;;;;39.85;21.52;;;;;;;17.29;59.05;101566.94;4964554;28;123792;-70
2021/09/18 01:40:41;;;;;;;38.65;21.58;;;;;;;17.29;59.27;101577.63;4965548;28;119158;-70
2021/09/18 01:43:08;;;;;;;40.35;21.67;;;;;;;17.29;59.23;101572.28;4967193;28;119121;-70
2021/09/18 01:45:36;;;;;;;43.80;21.88;;;;;;;17.29;59.15;101583.00;4968284;28;124279;-70
2021/09/18 01:48:07;;;;;;;35.88;19.50;;;;;;;17.29;59.31;101577.63;4967046;28;123997;-70
2021/09/18 01:50:47;;;;;;;34.00;19.13;;;;;;;17.31;59.03;101575.72;4965676;28;119131;-71
2021/09/18 01:53:16;;;;;;;32.90;18.88;;;;;;;17.31;59.08;101565.03;4960138;28;119856;-71
2021/09/18 01:55:44;;;;;;;33.08;18.58;;;;;;;17.30;58.93;101578.50;4966249;28;124813;-71
2021/09/18 01:58:12;;;;;;;33.80;18.88;;;;;;;17.26;58.83;101577.81;4963235;28;124761;-70
2021/09/18 02:00:42;;;;;;;35.08;19.25;;;;;;;17.24;58.81;101574.38;4963033;28;119417;-70
2021/09/18 02:03:09;;;;;;;38.53;18.23;;;;;;;17.21;58.88;101576.38;4959496;28;119354;-70
2021/09/18 02:05:37;;;;;;;28.65;17.60;;;;;;;17.19;58.90;101581.81;4965009;28;124121;-71
2021/09/18 02:08:04;;;;;;;27.85;17.52;;;;;;;17.16;58.89;101574.00;4968828;28;124663;-72
2021/09/18 02:10:33;;;;;;;25.63;16.50;;;;;;;17.13;59.02;101582.19;4965634;28;120611;-71
2021/09/18 02:13:02;;;;;;;27.13;17.10;;;;;;;17.11;58.96;101579.63;4963685;28;119832;-70
2021/09/18 02:15:29;;;;;;;26.70;16.60;;;;;;;17.10;58.94;101577.91;4961859;28;124572;-71
2021/09/18 02:17:56;;;;;;;25.98;16.55;;;;;;;17.10;58.88;101574.34;4965035;28;124287;-70
2021/09/18 02:20:26;;;;;;;29.42;17.48;;;;;;;17.07;58.99;101577.22;4958926;28;120049;-70
2021/09/18 02:22:54;;;;;;;29.52;18.00;;;;;;;17.05;58.96;101568.44;4964246;28;118875;-70
2021/09/18 02:25:22;;;;;;;29.40;18.23;;;;;;;17.04;58.77;101558.66;4965541;28;124089;-70
2021/09/18 02:27:50;;;;;;;30.75;18.10;;;;;;;17.02;58.92;101563.25;4964667;28;124066;-70
2021/09/18 02:30:20;;;;;;;31.98;18.83;;;;;;;17.02;59.16;101563.25;4961252;28;119330;-70
2021/09/18 02:32:48;;;;;;;33.45;18.83;;;;;;;17.00;58.98;101562.50;4953039;28;118966;-70
2021/09/18 02:35:18;;;;;;;34.15;18.95;;;;;;;16.97;58.86;101560.00;4964909;28;98574;-70
2021/09/18 02:37:47;;;;;;;35.17;19.45;;;;;;;16.96;58.95;101563.63;4965027;28;123781;-70
2021/09/18 02:40:15;;;;;;;32.63;18.45;;;;;;;16.93;58.98;101554.84;4968842;28;118289;-70
2021/09/18 02:42:44;;;;;;;31.98;18.73;;;;;;;16.91;59.01;101556.75;4968669;28;119047;-70
2021/09/18 02:45:12;;;;;;;34.55;19.58;;;;;;;16.90;58.93;101555.03;4960442;28;124142;-70
2021/09/18 02:47:39;;;;;;;31.42;18.08;;;;;;;16.89;59.07;101558.63;4968692;28;122591;-70
2021/09/18 02:50:09;;;;;;;31.63;18.67;;;;;;;16.87;59.00;101555.19;4961294;28;121641;-70
2021/09/18 02:52:36;;;;;;;31.42;18.77;;;;;;;16.85;59.01;101541.03;4973210;28;117991;-70
2021/09/18 02:55:06;;;;;;;32.95;18.08;;;;;;;16.84;59.05;101550.03;4959481;28;124829;-70
2021/09/18 02:57:33;;;;;;;31.08;16.83;;;;;;;16.84;58.98;101543.81;4959172;28;123989;-70
2021/09/18 03:00:00;;;;;;;26.20;16.13;;;;;;;16.82;59.03;101541.25;4963479;28;120387;-69
2021/09/18 03:02:28;;;;;;;27.08;16.58;;;;;;;16.81;59.27;101539.47;4955654;28;120909;-70
2021/09/18 03:04:55;;;;;;;23.35;15.05;;;;;;;16.81;59.05;101531.47;4965469;28;124095;-69
2021/09/18 03:07:22;;;;;;;25.80;15.70;;;;;;;16.80;59.02;101535.09;4968283;28;124301;-69
2021/09/18 03:09:49;;;;;;;29.45;16.80;;;;;;;16.79;59.14;101530.69;4965340;28;119900;-70
2021/09/18 03:12:17;;;;;;;28.42;17.08;;;;;;;16.77;59.20;101527.25;4962746;28;119192;-70
2021/09/18 03:14:44;;;;;;;26.65;16.27;;;;;;;16.76;59.08;101530.88;4966639;28;124241;-70
2021/09/18 03:17:11;;;;;;;29.65;16.65;;;;;;;16.73;59.13;101531.06;4964686;28;124910;-70
2021/09/18 03:19:38;;;;;;;27.65;16.58;;;;;;;16.71;59.23;101531.16;4965149;28;119438;-71
2021/09/18 03:22:05;;;;;;;27.80;16.40;;;;;;;16.68;59.15;101527.81;4961357;28;119164;-70
2021/09/18 03:24:33;;;;;;;26.25;15.40;;;;;;;16.67;59.18;101536.75;4965920;28;124025;-70
2021/09/18 03:27:00;;;;;;;25.00;15.65;;;;;;;16.65;59.17;101527.97;4964285;28;123972;-70
2021/09/18 03:29:27;;;;;;;24.75;15.75;;;;;;;16.64;59.29;101531.63;4964569;28;119705;-69
2021/09/18 03:31:54;;;;;;;24.48;15.75;;;;;;;16.61;59.24;101529.97;4963084;28;119450;-70
2021/09/18 03:34:21;;;;;;;23.50;15.90;;;;;;;16.59;59.16;101534.53;4965929;28;124106;-70
2021/09/18 03:36:49;;;;;;;23.83;15.85;;;;;;;16.57;59.22;101530.25;4968954;28;124423;-70
2021/09/18 03:39:16;;;;;;;24.27;15.27;;;;;;;16.53;59.27;101534.91;4960708;28;119273;-70
2021/09/18 03:41:43;;;;;;;24.48;15.18;;;;;;;16.48;59.27;101535.22;4961635;28;119276;-69
2021/09/18 03:44:10;;;;;;;21.98;14.27;;;;;;;16.47;59.20;101541.50;4966483;28;124097;-70
2021/09/18 03:46:37;;;;;;;20.50;13.65;;;;;;;16.47;59.28;101541.50;4958194;28;124020;-69
2021/09/18 03:49:05;;;;;;;23.33;14.38;;;;;;;16.45;59.22;101543.41;4959234;28;120980;-70
2021/09/18 03:51:32;;;;;;;23.38;14.30;;;;;;;16.42;59.09;101538.22;4963479;28;120207;-70
2021/09/18 03:53:59;;;;;;;24.00;14.35;;;;;;;16.39;59.16;101533.06;4963016;28;124033;-70
2021/09/18 03:56:26;;;;;;;28.67;15.68;;;;;;;16.35;59.01;101532.38;4965432;28;124034;-70
2021/09/18 03:58:53;;;;;;;28.88;15.45;;;;;;;16.31;59.12;101529.97;4966889;28;118086;-70
2021/09/18 04:01:21;;;;;;;31.67;14.88;;;;;;;16.25;59.22;101533.00;4962194;28;118949;-70
2021/09/18 04:03:48;;;;;;;37.13;15.07;;;;;;;16.18;59.15;101528.94;4963533;28;123435;-70
2021/09/18 04:06:15;;;;;;;26.45;14.82;;;;;;;16.09;59.16;101525.88;4965521;28;123947;-70
2021/09/18 04:08:45;;;;;;;23.40;14.43;;;;;;;16.03;59.36;101536.91;4959376;28;119862;-70
2021/09/18 04:11:12;;;;;;;24.52;13.70;;;;;;;15.95;59.32;101536.47;4961550;28;119485;-70
2021/09/18 04:13:39;;;;;;;22.42;13.75;;;;;;;15.89;59.49;101534.16;4966255;28;124214;-70
2021/09/18 04:16:06;;;;;;;21.88;13.88;;;;;;;15.86;59.56;101534.31;4964875;28;124345;-70
2021/09/18 04:18:33;;;;;;;24.52;14.68;;;;;;;15.84;59.73;101541.56;4959846;28;119309;-70
2021/09/18 04:21:00;;;;;;;22.85;13.68;;;;;;;15.84;59.77;101546.91;4960112;28;119256;-70
2021/09/18 04:23:28;;;;;;;20.25;13.90;;;;;;;15.84;59.72;101552.25;4965921;28;124329;-70
2021/09/18 04:25:55;;;;;;;23.13;13.77;;;;;;;15.83;59.91;101555.88;4959667;28;124326;-70
2021/09/18 04:28:22;;;;;;;24.77;14.07;;;;;;;15.80;59.73;101551.53;4963871;28;119205;-70
2021/09/18 04:30:49;;;;;;;25.40;14.05;;;;;;;15.75;59.84;101554.50;4964230;28;119835;-70
2021/09/18 04:33:16;;;;;;;27.30;13.95;;;;;;;15.71;60.00;101550.22;4965528;28;124793;-70
2021/09/18 04:35:43;;;;;;;22.27;13.07;;;;;;;15.69;60.17;101560.16;4964116;28;124004;-70
2021/09/18 04:38:11;;;;;;;27.70;13.80;;;;;;;15.67;60.18;101562.03;4958635;28;120347;-70
2021/09/18 04:40:38;;;;;;;29.92;12.85;;;;;;;15.63;60.01;101560.44;4987532;22;120677;-72
2021/09/18 04:43:05;;;;;;;19.83;13.63;;;;;;;15.57;60.21;101560.81;4966132;28;124394;-72
2021/09/18 04:45:32;;;;;;;20.75;13.25;;;;;;;15.55;60.42;101557.34;4965176;28;125473;-72
2021/09/18 04:47:59;;;;;;;19.27;12.25;;;;;;;15.56;60.50;101564.44;4960908;28;119881;-72
2021/09/18 04:50:26;;;;;;;19.67;13.13;;;;;;;15.57;60.44;101566.13;4978488;28;119027;-72
2021/09/18 04:52:53;;;;;;;20.63;13.45;;;;;;;15.60;60.54;101571.31;4965789;28;123611;-72
2021/09/18 04:55:21;;;;;;;19.25;13.43;;;;;;;15.61;60.47;101567.69;4961282;28;124309;-72
2021/09/18 04:57:48;;;;;;;18.02;12.27;;;;;;;15.63;60.39;101571.13;4961010;28;117827;-72
2021/09/18 05:00:15;;;;;;;19.85;12.20;;;;;;;15.65;60.55;101574.63;4951915;28;118907;-72
2021/09/18 05:02:42;;;;;;;19.52;11.98;;;;;;;15.67;60.39;101578.06;4965773;28;124350;-72
2021/09/18 05:05:11;;;;;;;20.10;12.70;;;;;;;15.67;60.49;101583.41;4969564;28;123861;-72
2021/09/18 05:07:38;;;;;;;18.13;12.70;;;;;;;15.69;60.48;101577.94;4962109;28;119397;-72
2021/09/18 05:10:06;;;;;;;18.55;11.93;;;;;;;15.69;60.51;101581.50;4967103;28;118720;-72
2021/09/18 05:12:33;;;;;;;17.60;12.25;;;;;;;15.68;60.39;101579.78;4950050;28;123501;-72
2021/09/18 05:15:01;;;;;;;16.40;11.77;;;;;;;15.68;60.27;101585.09;4967191;28;124058;-72
2021/09/18 05:17:28;;;;;;;16.90;12.10;;;;;;;15.69;60.39;101586.84;4966661;28;119651;-72
2021/09/18 05:19:55;;;;;;;19.52;11.93;;;;;;;15.69;60.31;101586.84;4961658;28;119253;-72
2021/09/18 05:22:22;;;;;;;15.68;11.52;;;;;;;15.69;60.31;101586.84;4968020;28;124121;-72
2021/09/18 05:24:51;;;;;;;24.30;12.68;;;;;;;15.68;60.23;101595.78;4966167;28;124794;-72
2021/09/18 05:27:19;;;;;;;18.60;11.98;;;;;;;15.69;60.57;101592.19;4963877;28;120215;-72
2021/09/18 05:29:46;;;;;;;21.52;13.02;;;;;;;15.68;60.51;101606.47;4963540;28;120544;-72
2021/09/18 05:32:13;;;;;;;21.13;13.18;;;;;;;15.69;60.55;101602.88;4969415;28;124295;-72
2021/09/18 05:34:40;;;;;;;22.00;12.93;;;;;;;15.71;60.39;101605.47;4968022;28;122680;-72
2021/09/18 05:37:07;;;;;;;24.35;12.00;;;;;;;15.70;60.50;101599.25;4960899;28;119305;-72
2021/09/18 05:39:35;;;;;;;19.55;12.43;;;;;;;15.70;60.59;101607.25;4967884;28;118217;-73
2021/09/18 05:42:02;;;;;;;20.55;12.02;;;;;;;15.68;60.56;101606.47;4963332;28;124507;-72
2021/09/18 05:44:29;;;;;;;21.00;12.88;;;;;;;15.67;60.82;101604.75;4966572;28;125645;-72
2021/09/18 05:46:56;;;;;;;20.23;12.15;;;;;;;15.68;60.76;101611.81;4960252;28;120004;-72
2021/09/18 05:49:24;;;;;;;16.63;11.75;;;;;;;15.69;60.87;101608.22;4964606;28;117944;-73
2021/09/18 05:51:51;;;;;;;18.92;11.30;;;;;;;15.70;60.85;101609.91;4965032;28;124669;-72
2021/09/18 05:54:18;;;;;;;15.18;10.82;;;;;;;15.71;60.84;101611.66;4967529;28;123873;-72
2021/09/18 05:56:45;;;;;;;16.10;11.85;;;;;;;15.72;60.78;101613.38;4963622;28;119648;-72
2021/09/18 05:59:12;;;;;;;16.20;11.93;;;;;;;15.72;60.72;101608.03;4966724;28;118320;-72
2021/09/18 06:01:39;;;;;;;18.25;11.35;;;;;;;15.72;60.80;101613.38;4965900;28;124953;-72
2021/09/18 06:04:07;;;;;;;15.32;11.10;;;;;;;15.70;60.65;101609.91;4961342;28;124235;-73
2021/09/18 06:06:34;;;;;;;16.92;11.35;;;;;;;15.65;60.72;101617.34;4960771;28;119323;-73
2021/09/18 06:09:01;;;;;;;17.60;11.68;;;;;;;15.60;60.86;101622.06;4959438;28;119121;-72
2021/09/18 06:11:28;;;;;;;16.95;11.32;;;;;;;15.55;60.93;101622.28;4955419;28;124688;-73
2021/09/18 06:13:55;;;;;;;14.20;10.95;;;;;;;15.55;61.04;101621.44;4958650;28;124399;-73
2021/09/18 06:16:23;;;;;;;17.48;11.50;;;;;;;15.56;61.25;101628.50;4962254;28;120407;-73
2021/09/18 06:18:51;;;;;;;18.13;12.32;;;;;;;15.57;61.33;101624.88;4963364;28;119666;-74
2021/09/18 06:21:19;;;;;;;19.65;11.52;;;;;;;15.61;61.49;101630.94;4949057;28;123103;-74
2021/09/18 06:23:46;;;;;;;17.30;11.95;;;;;;;15.63;61.45;101629.88;4947693;28;123070;-74
2021/09/18 06:26:16;;;;;;;17.52;12.15;;;;;;;15.70;61.66;101625.09;4961156;28;120145;-74
2021/09/18 06:28:44;;;;;;;16.77;11.45;;;;;;;15.75;61.74;101618.59;4962681;28;119102;-74
2021/09/18 06:31:11;;;;;;;22.05;11.38;;;;;;;15.84;61.94;101621.69;4964677;28;123995;-74
2021/09/18 06:33:38;;;;;;;17.08;11.63;;;;;;;15.89;61.77;101625.84;4961287;28;124447;-74
2021/09/18 06:36:06;;;;;;;18.90;12.07;;;;;;;15.96;61.95;101626.38;4962909;28;119265;-74
2021/09/18 06:38:33;;;;;;;18.70;11.85;;;;;;;16.03;61.94;101627.75;4958575;28;119447;-74
2021/09/18 06:41:00;;;;;;;18.63;11.95;;;;;;;16.08;62.10;101635.50;4960876;28;123870;-73
2021/09/18 06:43:28;;;;;;;26.30;11.95;;;;;;;16.14;62.00;101625.34;4965631;28;124081;-74
2021/09/18 06:45:55;;;;;;;17.80;12.57;;;;;;;16.20;61.93;101632.16;4962358;28;119155;-74
2021/09/18 06:48:23;;;;;;;19.85;12.65;;;;;;;16.26;62.03;101637.16;4968083;28;119380;-72
2021/09/18 06:50:50;;;;;;;20.40;11.98;;;;;;;16.34;62.17;101634.06;4977228;28;123609;-73
2021/09/18 06:53:17;;;;;;;21.27;11.82;;;;;;;16.41;62.23;101638.09;4982702;28;123977;-73
2021/09/18 06:55:45;;;;;;;19.25;12.35;;;;;;;16.47;62.33;101645.78;4968745;28;119269;-73
2021/09/18 06:58:12;;;;;;;17.67;11.85;;;;;;;16.54;62.32;101649.81;4969239;28;120721;-73
2021/09/18 07:00:39;;;;;;;26.35;12.27;;;;;;;16.63;62.27;101652.91;4983196;28;123436;-73
2021/09/18 07:03:07;;;;;;;24.08;12.15;;;;;;;16.68;62.23;101656.19;4968207;28;123313;-72
2021/09/18 07:05:35;;;;;;;24.77;13.00;;;;;;;16.69;62.52;101653.44;4968827;28;119987;-72
2021/09/18 07:08:02;;;;;;;24.25;12.90;;;;;;;16.73;62.55;101660.31;4965163;28;120524;-72
2021/09/18 07:10:29;;;;;;;27.33;13.40;;;;;;;16.78;62.80;101652.03;4957987;28;123449;-72
2021/09/18 07:12:58;;;;;;;27.80;13.35;;;;;;;16.83;62.59;101655.31;4968096;28;124457;-73
2021/09/18 07:15:26;;;;;;;30.23;13.77;;;;;;;16.84;62.80;101649.03;4964496;28;119074;-78
2021/09/18 07:17:53;;;;;;;27.30;13.52;;;;;;;16.87;62.84;101651.50;4966223;28;119198;-76
2021/09/18 07:20:20;;;;;;;23.98;13.35;;;;;;;16.93;63.08;101651.19;4967203;28;123591;-78
2021/09/18 07:22:47;;;;;;;29.27;13.68;;;;;;;17.05;63.22;101656.75;4934332;28;123395;-78
2021/09/18 07:25:15;;;;;;;32.40;13.68;;;;;;;17.16;63.16;101651.63;4965755;28;119256;-78
2021/09/18 07:27:42;;;;;;;24.13;14.00;;;;;;;17.25;63.10;101651.06;4964122;28;119638;-76
2021/09/18 07:30:09;;;;;;;24.98;14.45;;;;;;;17.36;63.26;101646.88;4966456;28;123122;-75
2021/09/18 07:32:37;;;;;;;24.40;14.35;;;;;;;17.45;63.38;101646.31;4964746;28;123895;-79
2021/09/18 07:35:07;;;;;;;23.67;13.98;;;;;;;17.57;63.29;101653.59;4963268;28;118587;-81
2021/09/18 07:37:35;;;;;;;38.53;14.18;;;;;;;17.68;63.19;101658.28;4954308;28;118379;-79
2021/09/18 07:40:09;;;;;;;31.45;14.63;;;;;;;17.77;63.31;101651.50;4967619;28;123958;-78
2021/09/18 07:42:36;;;;;;;25.48;15.25;;;;;;;17.87;63.07;101652.66;4962566;28;124444;-78
2021/09/18 07:45:05;;;;;;;30.70;14.75;;;;;;;17.96;63.25;101654.78;4968000;28;118557;-77
2021/09/18 07:47:32;;;;;;;29.67;15.75;;;;;;;18.05;63.29;101654.19;4964813;28;119438;-80
2021/09/18 07:50:01;;;;;;;31.05;15.43;;;;;;;18.16;63.30;101658.00;4967666;28;123174;-79
2021/09/18 07:52:28;;;;;;;29.92;14.98;;;;;;;18.24;63.34;101650.34;4963465;28;123025;-81
2021/09/18 07:54:55;;;;;;;36.17;15.45;;;;;;;18.32;63.09;101658.72;4966789;28;120582;-79
2021/09/18 07:57:42;;;;;;;28.05;14.93;;;;;;;18.37;63.07;101658.44;4968238;28;119108;-80
2021/09/18 08:00:10;;;;;;;29.13;15.43;;;;;;;18.42;63.25;101657.19;4975128;28;123487;-80
2021/09/18 08:02:37;;;;;;;41.08;15.27;;;;;;;18.52;63.47;101653.91;4960420;28;122723;-80
2021/09/18 08:05:05;;;;;;;29.63;16.50;;;;;;;18.63;63.53;101660.28;4964814;28;119080;-80
2021/09/18 08:07:32;;;;;;;32.17;16.05;;;;;;;18.76;63.58;101663.03;4968452;28;118223;-76
2021/09/18 08:10:00;;;;;;;33.03;15.52;;;;;;;18.85;63.51;101673.19;4967221;28;124424;-77
2021/09/18 08:12:27;;;;;;;34.10;14.85;;;;;;;18.91;63.16;101668.34;4969228;28;123233;-79
2021/09/18 08:14:54;;;;;;;31.00;16.05;;;;;;;18.95;63.44;101672.53;4968001;28;118664;-81
2021/09/18 08:17:22;;;;;;;33.15;15.50;;;;;;;19.03;63.20;101675.59;4984457;28;118409;-79
2021/09/18 08:19:49;;;;;;;34.28;16.55;;;;;;;19.10;63.12;101671.53;4963668;28;124813;-76
2021/09/18 08:22:16;;;;;;;34.80;17.33;;;;;;;19.14;63.27;101678.41;4962272;28;124483;-76
2021/09/18 08:24:43;;;;;;;30.77;15.85;;;;;;;19.18;63.43;101679.91;4968042;28;119378;-77
2021/09/18 08:27:10;;;;;;;41.10;15.95;;;;;;;19.22;63.46;101676.03;4961709;28;118690;-77
2021/09/18 08:29:37;;;;;;;30.88;16.05;;;;;;;19.31;63.45;101679.06;4954229;28;124747;-77
2021/09/18 08:32:05;;;;;;;31.23;16.10;;;;;;;19.40;63.63;101673.06;4959415;28;122787;-77
2021/09/18 08:34:32;;;;;;;30.23;16.80;;;;;;;19.49;63.51;101672.41;4964763;28;119072;-78
2021/09/18 08:37:00;;;;;;;34.22;17.00;;;;;;;19.57;63.32;101675.44;4964095;28;119731;-80
2021/09/18 08:39:27;;;;;;;32.65;16.13;;;;;;;19.63;63.63;101668.78;4970735;28;123721;-79
2021/09/18 08:41:54;;;;;;;35.13;17.25;;;;;;;19.69;63.36;101673.72;4961018;28;125126;-80
2021/09/18 08:44:21;;;;;;;32.30;16.83;;;;;;;19.76;63.38;101679.53;4959587;28;120026;-79
2021/09/18 08:46:49;;;;;;;34.08;17.42;;;;;;;19.85;63.36;101684.25;4972563;28;118966;-78
2021/09/18 08:49:17;;;;;;;35.95;17.77;;;;;;;19.96;63.54;101686.19;4964535;28;123354;-78
2021/09/18 08:51:44;;;;;;;29.63;16.15;;;;;;;20.06;63.26;101692.66;4985903;28;122750;-79
2021/09/18 08:54:13;;;;;;;32.83;17.48;;;;;;;20.13;63.65;101693.06;4973649;28;119280;-79
2021/09/18 08:56:40;;;;;;;32.25;17.63;;;;;;;20.18;63.21;101691.75;4987256;28;118273;-78
2021/09/18 08:59:07;;;;;;;30.10;17.05;;;;;;;20.26;63.00;101690.34;4969807;28;124928;-80
2021/09/18 09:01:35;;;;;;;28.17;16.92;;;;;;;20.31;63.14;101683.66;4966404;28;124298;-79
2021/09/18 09:04:07;;;;;;;33.17;17.23;;;;;;;20.39;63.19;101689.34;4986904;28;118201;-79
2021/09/18 09:06:50;;;;;;;29.50;16.92;;;;;;;20.53;63.28;101695.53;4970636;28;119337;-78
2021/09/18 09:09:17;;;;;;;31.30;16.48;;;;;;;20.64;63.16;101690.25;4978725;28;124157;-74
2021/09/18 09:11:53;;;;;;;29.17;16.30;;;;;;;20.73;63.02;101696.78;4967738;28;124823;-79
2021/09/18 09:14:20;;;;;;;29.77;16.25;;;;;;;20.83;62.79;101691.56;4946279;28;117710;-79
2021/09/18 09:17:05;;;;;;;27.50;16.27;;;;;;;20.88;62.55;101684.88;4969257;28;118984;-78
2021/09/18 09:19:40;;;;;;;23.15;14.95;;;;;;;20.97;62.42;101678.78;4967768;28;123942;-79
2021/09/18 09:22:07;;;;;;;;;;;;;;;21.02;62.29;101686.53;4968717;28;123346;-79
2021/09/18 09:24:35;;;;;;;29.77;15.93;;;;;;;21.14;62.28;101680.19;4967428;28;120103;-79
2021/09/18 09:27:11;;;;;;;26.92;15.57;;;;;;;21.28;62.22;101686.34;4978540;28;118503;-78
2021/09/18 09:29:49;;;;;;;26.00;15.77;;;;;;;21.40;62.33;101685.41;4963209;28;123237;-79
2021/09/18 09:32:33;;;;;;;27.63;16.20;;;;;;;21.51;62.08;101677.41;4968922;28;123783;-79
2021/09/18 09:35:09;;;;;;;24.80;15.77;;;;;;;21.62;61.66;101678.38;4959571;28;119565;-78
2021/09/18 09:37:36;;;;;;;24.15;15.25;;;;;;;21.66;61.41;101675.34;4963974;28;119989;-82
2021/09/18 09:40:07;;;;;;;25.40;15.35;;;;;;;21.71;61.34;101683.03;4983997;28;124047;-81
2021/09/18 09:42:42;;;;;;;25.45;15.60;;;;;;;21.76;61.60;101686.25;4966583;28;123087;-80
2021/09/18 09:45:11;;;;;;;24.75;14.85;;;;;;;21.84;61.35;101689.19;4969325;28;118808;-81
2021/09/18 09:47:40;;;;;;;25.27;15.30;;;;;;;21.92;61.44;101680.47;4970761;28;119143;-80
2021/09/18 09:50:08;;;;;;;23.17;14.77;;;;;;;22.01;61.24;101684.28;4969990;28;123432;-80
2021/09/18 09:52:37;;;;;;;22.80;14.48;;;;;;;22.09;61.22;101687.22;4963253;28;123380;-79
2021/09/18 09:55:07;;;;;;;24.27;14.77;;;;;;;22.19;61.04;101677.41;4972487;28;118734;-79
2021/09/18 09:57:35;;;;;;;21.88;13.82;;;;;;;22.30;60.82;101682.84;4975798;28;120559;-79
2021/09/18 10:00:12;;;;;;;22.63;14.52;;;;;;;22.44;60.97;101686.25;4973419;28;123555;-80
2021/09/18 10:02:41;;;;;;;19.60;13.40;;;;;;;22.59;60.56;101684.97;4970557;28;123085;-79
2021/09/18 10:05:14;;;;;;;22.95;13.95;;;;;;;22.70;60.40;101676.84;4975763;28;118929;-81
2021/09/18 10:07:42;;;;;;;21.85;14.40;;;;;;;22.83;60.23;101681.19;4974210;28;118140;-80
2021/09/18 10:10:12;;;;;;;19.55;12.45;;;;;;;22.94;60.06;101683.84;4973702;28;123961;-80
2021/09/18 10:12:40;;;;;;;23.67;13.45;;;;;;;23.05;60.18;101685.69;4974899;28;123951;-79
2021/09/18 10:15:08;;;;;;;21.67;13.82;;;;;;;;;;4978189;28;117282;-81
2021/09/18 10:17:40;;;;;;;18.08;12.20;;;;;;;23.28;58.89;101675.59;4966919;28;118319;-82
2021/09/18 10:20:10;;;;;;;21.45;11.77;;;;;;;23.29;58.67;101677.34;4973314;28;123820;-81
2021/09/18 10:25:33;;;;;;;16.92;11.02;;;;;;;23.43;58.39;101673.44;4983128;28;119825;-81
2021/09/18 10:28:04;;;;;;;15.95;10.15;;;;;;;23.51;58.39;101666.38;4965817;28;118808;-82
2021/09/18 10:30:46;;;;;;;13.25;9.07;;;;;;;23.63;57.81;101669.00;4970861;28;122151;-83
2021/09/18 10:33:34;;;;;;;14.75;9.30;;;;;;;23.70;57.35;101672.88;4970749;28;122863;-82
2021/09/18 10:36:12;;;;;;;13.23;7.97;;;;;;;23.77;57.12;101674.06;4967404;28;120713;-82
2021/09/18 10:38:42;;;;;;;12.15;7.72;;;;;;;23.83;56.34;101676.25;4971100;28;118830;-82
2021/09/18 10:41:11;;;;;;;10.68;6.60;;;;;;;23.89;55.78;101674.84;4985863;22;123522;-78
2021/09/18 10:43:44;;;;;;;13.00;7.97;;;;;;;23.92;55.95;101671.88;4986606;28;122197;-77
2021/09/18 10:46:42;;;;;;;12.52;7.53;;;;;;;23.99;55.81;101661.38;4968382;28;118667;-76
2021/09/18 10:49:37;;;;;;;9.55;6.45;;;;;;;24.05;55.67;101661.69;4955236;28;118336;-76
2021/09/18 10:52:16;;;;;;;12.33;7.80;;;;;;;24.14;55.35;101662.69;4977429;28;123837;-76
2021/09/18 10:55:10;;;;;;;12.73;7.85;;;;;;;24.21;55.48;101653.03;4984894;28;123401;-79
2021/09/18 10:57:48;;;;;;;12.88;7.97;;;;;;;24.27;55.00;101657.88;4963659;28;119338;-80
2021/09/18 11:00:18;;;;;;;12.35;8.27;;;;;;;24.31;54.41;101658.47;4965276;28;119244;-79
2021/09/18 11:02:50;;;;;;;11.45;6.65;;;;;;;24.35;54.69;101659.03;4969451;28;123938;-79
2021/09/18 11:05:20;;;;;;;11.68;6.82;;;;;;;24.42;54.07;101654.78;4984116;28;124225;-78
2021/09/18 11:07:52;;;;;;;9.13;6.38;;;;;;;24.46;53.05;101650.78;4979553;28;118230;-80
2021/09/18 11:10:19;;;;;;;10.80;7.63;;;;;;;24.46;53.67;101656.22;4968915;28;118726;-78
2021/09/18 11:13:09;;;;;;;11.60;7.60;;;;;;;24.47;53.39;101647.09;4955326;28;123313;-79